This is the latest recevied weather packets stored in our database for station/object KN6ETB-1. If no packets are shown the sender has not sent any weather packets the latest 10 day(s).
| Time | Temp. | Humidity | Pressure | Rain* | Wind** | Luminosity | Snow |
|---|---|---|---|---|---|---|---|
| 1778007115 | 15.56° C | 84% | 1013 hPa | 0 mm | - | 196 W/m² | - |
| 1778006811 | 15.56° C | 85% | 1013.2 hPa | 0 mm | - | 89 W/m² | - |
| 1778006509 | 15.56° C | 85% | 1013.3 hPa | 0 mm | - | 172 W/m² | - |
| 1778006205 | 15° C | 85% | 1013 hPa | 0 mm | - | 160 W/m² | - |
| 1778005903 | 15° C | 84% | 1013.1 hPa | 0 mm | - | 140 W/m² | - |
| 1778005599 | 15° C | 84% | 1013.2 hPa | 0 mm | - | 130 W/m² | - |
| 1778005296 | 15° C | 84% | 1013.2 hPa | 0 mm | - | 180 W/m² | - |
| 1778004992 | 15° C | 84% | 1012.8 hPa | 0 mm | - | 383 W/m² | - |
| 1778004691 | 15° C | 85% | 1013.1 hPa | 0 mm | - | 308 W/m² | - |
| 1778004386 | 15° C | 86% | 1013.1 hPa | 0 mm | - | 314 W/m² | - |
| 1778004084 | 15° C | 86% | 1013.1 hPa | 0 mm | - | 260 W/m² | - |
| 1778003780 | 14.44° C | 87% | 1013.1 hPa | 0 mm | - | 217 W/m² | - |
| 1778003476 | 14.44° C | 87% | 1013.1 hPa | 0 mm | - | 152 W/m² | - |
| 1778003173 | 14.44° C | 88% | 1013 hPa | 0 mm | - | 182 W/m² | - |
| 1778002869 | 14.44° C | 88% | 1013.1 hPa | 0 mm | - | 100 W/m² | - |
| 1778002566 | 14.44° C | 88% | 1012.8 hPa | 0 mm | - | 138 W/m² | - |
| 1778002263 | 15° C | 87% | 1012.6 hPa | 0 mm | - | 134 W/m² | - |
| 1778001961 | 15° C | 87% | 1012.8 hPa | 0 mm | - | 124 W/m² | - |
| 1778001657 | 14.44° C | 86% | 1012.6 hPa | 0 mm | - | 119 W/m² | - |
| 1778001357 | 15° C | 86% | 1012.6 hPa | 0 mm | - | 127 W/m² | - |
| 1778001055 | 15° C | 86% | 1012.7 hPa | 0 mm | - | 221 W/m² | - |
| 1778000751 | 14.44° C | 86% | 1012.7 hPa | 0 mm | - | 153 W/m² | - |
| 1778000448 | 15° C | 86% | 1012.7 hPa | 0 mm | - | 213 W/m² | - |
| 1778000143 | 15° C | 86% | 1012.8 hPa | 0 mm | - | 179 W/m² | - |
| 1777999839 | 15° C | 86% | 1012.6 hPa | 0 mm | - | 202 W/m² | - |
* Rain latest hour (hover to see other rain measurements)
** Current wind speed in m/s (hover to see current wind gust speed)